الصفحة الرئيسية
METAR-TAF:

METAR-TAF

مطار :

قاعدة جبل بليزنت الجوية

ستانلي, جزر فوكلاند

دائرة عرض: 51-49S, خط طول: 058-27W, ارتفاع: 74 متر

مراقبة الطقس الحالي

تاريخ ووقت الإصدار 37 دقيقة قبل الساعة 09:50UTC
ريح 5 عقدة من الشرق/الجنوب الشرقي
درجة الحرارة 10°درجة مئوية
الرطوبة 93%
ضغط 1002 hPa
الرؤية 10 كم أو أكثر
ملبد بالغيوم على ارتفاع 300 قدم
مطر خفيف

METAR: EGYP 140950Z 12005KT 9999 -RA OVC003 10/09 Q1002 YLO2 TEMPO FEW003 BLU

زمن: 07:27 (10:27 UTC)

توقعات

تاريخ ووقت الإصدار 57 دقيقة قبل الساعة 09:30UTC
التوقعات صالحة من14 الساعة 09 UTC إلى 15 الساعة 03 UTC
ريح 7 عقدة من الجنوب الشرقي
الرؤية 10 كم أو أكثر
غيوم قليلة على ارتفاع 700 قدم
مؤقت
من 14 الساعة 09 UTC إلى 14 الساعة 12 UTC
الرؤية: 7000 متر
غيوم متفرقة على ارتفاع 300 قدم
غشاء
نظرية الاحتمالات 40% :
مؤقت
من 14 الساعة 12 UTC إلى 14 الساعة 15 UTC
غيوم متفرقة على ارتفاع 1000 قدم
نظرية الاحتمالات 30% :
مؤقت
من 14 الساعة 15 UTC إلى 14 الساعة 19 UTC
غيوم متفرقة على ارتفاع 1800 قدم

TAF: EGYP 140930Z 1409/1503 14007KT 9999 FEW007 TEMPO 1409/1412 7000 BR SCT003 PROB40 TEMPO 1412/1415 SCT010 PROB30 TEMPO 1415/1419 SCT018

أرصاد الطقس والتوقعات من أكثر من 4000 مطار (تقارير الطقس للمطار METAR والتنبؤ بالطقس بالمطارTAF).

المحطات المتاحة هي النقط الصفراء والحمراء على الخريطة.

حرك المؤشر فوق النقطة لمعرفة اسم المحطة.

ثم انقر لمعرفة أرصاد وتوقعات الطقس.

لتغيير الخارطة: اضغط على الأزرار الخضراء مع رمز الصليب الأسود للتكبير. على الزر الأخضر مع شرطة للتصغير، أو على الأسهم الخضراء للخرائط المجاورة.


METAR-TAF: